Climax, Michigan
Current Conditions -  °F | °C
As of 11:53 PM on Friday 28 Nov 2014 (Local Time) from KBTL Reporting Station
Overcast Overcast  
Wind Chill: 22°   Ceiling: 3900
Heat Index: 31°   Visibility: 10mi
Dew Point: 20°   Wind: 12mph
Humidity: 64%   Direction: 180°S
Pressure: 29.99"   Gusts: NA
Location:  42.24°N, 85.33°W
Report Text: KBTL 290453Z 18010KT 10SM BKN039 OVC055 M01/M07 A2999 RMK AO2 SNE28 SLP166 P0000 T10061067 410061061 $
Loading
Personal Weather Stations






























Interactive Weather Map New forecast layout! Learn more

10-Day Weather Forecast

Advertisements
Track Severe Weather on mobile